Finikia — YKRO — position and weather

sailwx.info

Track history (hours):
 
Tides and Currents Weather Stations Pressure Air Temp Water Temp Dewpoint Dewpoint Depression Visibility Wind Speed Wind Dir Waves Ship Positions

Finikia

Last reported at 2015-Apr-26 16:25 UTC. Time now 2015-Apr-28 02:07 UTC.
Position N 35°50' E 010°39'.

Length 138 m; draft 8.5 m.

Type: Cargo ship. MMSI: 468395000.

Date/timePositionNaut miles runAvg speedWind from/ knotsBaromVisibWave heightAir tempDewpointWater temp
2015-Apr-26 16:25N 35°50' E 010°39'0 0.0
2015-Apr-26 15:31N 35°50' E 010°39'0 0.0
2015-Apr-26 14:31N 35°50' E 010°39'0 0.0
2015-Apr-26 13:31N 35°50' E 010°39'0 0.0
2015-Apr-26 12:25N 35°50' E 010°39'  
2015-Apr-23 13:13N 35°50' E 010°39'0 0.0
2015-Apr-22 15:30N 35°50' E 010°39'0 0.0
2015-Apr-22 12:06N 35°50' E 010°39'  
2015-Apr-19 03:03N 35°51' E 010°41'0 0.0
2015-Apr-19 02:25N 35°51' E 010°41'0 0.0
2015-Apr-19 00:33N 35°51' E 010°41'0 0.1
2015-Apr-18 23:32N 35°51' E 010°41'0 0.1
2015-Apr-18 22:33N 35°51' E 010°41'63 7.0
2015-Apr-18 13:33N 35°53' E 011°59'1111.1
2015-Apr-18 12:33N 35°56' E 012°12'1111.6
2015-Apr-18 11:33N 35°59' E 012°26'1212.1
2015-Apr-18 10:33N 36°02' E 012°40'1212.1
2015-Apr-18 09:33N 36°06' E 012°54'1411.9
2015-Apr-18 08:25N 36°09' E 013°10'2412.2
2015-Apr-18 06:29N 36°16' E 013°38'1111.8
2015-Apr-18 05:33N 36°19' E 013°52'1212.0
2015-Apr-18 04:33N 36°22' E 014°06'1211.7
2015-Apr-18 03:33N 36°26' E 014°20'1211.6
2015-Apr-18 02:33N 36°29' E 014°34'1211.7
2015-Apr-18 01:31N 36°32' E 014°48'1111.8
2015-Apr-18 00:33N 36°35' E 015°02'21411.2
2015-Apr-17 05:33N 39°17' E 017°59'1111.2
2015-Apr-17 04:33N 39°25' E 018°09'1111.5
2015-Apr-17 03:33N 39°33' E 018°19'1111.3
2015-Apr-17 02:33N 39°41' E 018°29'1110.6
2015-Apr-17 01:34N 39°50' E 018°37'1110.9
2015-Apr-17 00:31N 40°01' E 018°37'1411.2
2015-Apr-16 23:17N 40°15' E 018°37'811.5
2015-Apr-16 22:33N 40°24' E 018°37'  
Track history (hours):
 
Tides and Currents Weather Stations Pressure Air Temp Water Temp Dewpoint Dewpoint Depression Visibility Wind Speed Wind Dir Waves Ship Positions

Finikia

Last reported at 2015-Apr-26 16:25 UTC. Time now 2015-Apr-28 02:07 UTC.
Position N 35°50' E 010°39'.

Length 138 m; draft 8.5 m.

Type: Cargo ship. MMSI: 468395000.

Date/timePositionNaut miles runAvg speedWind from/ knotsBaromVisibWave heightAir tempDewpointWater temp
2015-Apr-26 16:25N 35°50' E 010°39'0 0.0
2015-Apr-26 15:31N 35°50' E 010°39'0 0.0
2015-Apr-26 14:31N 35°50' E 010°39'0 0.0
2015-Apr-26 13:31N 35°50' E 010°39'0 0.0
2015-Apr-26 12:25N 35°50' E 010°39'  
2015-Apr-23 13:13N 35°50' E 010°39'0 0.0
2015-Apr-22 15:30N 35°50' E 010°39'0 0.0
2015-Apr-22 12:06N 35°50' E 010°39'  
2015-Apr-19 03:03N 35°51' E 010°41'0 0.0
2015-Apr-19 02:25N 35°51' E 010°41'0 0.0
2015-Apr-19 00:33N 35°51' E 010°41'0 0.1
2015-Apr-18 23:32N 35°51' E 010°41'0 0.1
2015-Apr-18 22:33N 35°51' E 010°41'63 7.0
2015-Apr-18 13:33N 35°53' E 011°59'1111.1
2015-Apr-18 12:33N 35°56' E 012°12'1111.6
2015-Apr-18 11:33N 35°59' E 012°26'1212.1
2015-Apr-18 10:33N 36°02' E 012°40'1212.1
2015-Apr-18 09:33N 36°06' E 012°54'1411.9
2015-Apr-18 08:25N 36°09' E 013°10'2412.2
2015-Apr-18 06:29N 36°16' E 013°38'1111.8
2015-Apr-18 05:33N 36°19' E 013°52'1212.0
2015-Apr-18 04:33N 36°22' E 014°06'1211.7
2015-Apr-18 03:33N 36°26' E 014°20'1211.6
2015-Apr-18 02:33N 36°29' E 014°34'1211.7
2015-Apr-18 01:31N 36°32' E 014°48'1111.8
2015-Apr-18 00:33N 36°35' E 015°02'21411.2
2015-Apr-17 05:33N 39°17' E 017°59'1111.2
2015-Apr-17 04:33N 39°25' E 018°09'1111.5
2015-Apr-17 03:33N 39°33' E 018°19'1111.3
2015-Apr-17 02:33N 39°41' E 018°29'1110.6
2015-Apr-17 01:34N 39°50' E 018°37'1110.9
2015-Apr-17 00:31N 40°01' E 018°37'1411.2
2015-Apr-16 23:17N 40°15' E 018°37'811.5
2015-Apr-16 22:33N 40°24' E 018°37'  

Dump ship's entire track history